Broadview, New Mexico
Current Conditions -  °F | °C
As of 3:35 PM on Monday 26 Jan 2015 (Local Time) from KCVN Reporting Station
Clear Clear  
Wind Chill: 66°   Ceiling: Unl
Heat Index: 66°   Visibility: NA
Dew Point: 34°   Wind: 10mph
Humidity: 30%   Direction: 70°ENE
Pressure: 30.24"   Gusts: NA
Location:  34.82°N, 103.22°W
Report Text: KCVN 262235Z AUTO 07009KT CLR 19/01 A3024 RMK AO1
Loading
Personal Weather Stations






























Interactive Weather Map New forecast layout! Learn more

10-Day Weather Forecast

Advertisements
Track Severe Weather on mobile